createdAt,value
2018-02-15T00:01:20.290Z,99533.19
2018-02-15T00:03:47.844Z,99543.15
2018-02-15T00:06:16.260Z,99545.34
2018-02-15T00:08:43.807Z,99549.39
2018-02-15T00:11:12.288Z,99552.45
2018-02-15T00:13:39.890Z,99563.30
2018-02-15T00:16:07.440Z,99562.76
2018-02-15T00:18:35.044Z,99555.88
2018-02-15T00:21:02.638Z,99553.25
2018-02-15T00:23:30.218Z,99542.83
2018-02-15T00:25:59.230Z,99551.63
2018-02-15T00:28:26.819Z,99558.98
2018-02-15T00:30:54.412Z,99562.83
2018-02-15T00:33:21.998Z,99558.59
2018-02-15T00:35:49.566Z,99571.61
2018-02-15T00:38:17.534Z,99574.30
2018-02-15T00:40:45.075Z,99580.23
2018-02-15T00:43:12.970Z,99588.69
2018-02-15T00:45:40.533Z,99586.22
2018-02-15T00:48:08.076Z,99580.43
2018-02-15T00:50:35.660Z,99589.48
2018-02-15T00:53:03.890Z,99585.08
2018-02-15T00:55:31.446Z,99581.52
2018-02-15T00:57:59.375Z,99579.97
2018-02-15T01:00:26.971Z,99589.15
2018-02-15T01:02:54.514Z,99591.13
2018-02-15T01:05:22.967Z,99588.91
2018-02-15T01:07:50.574Z,99586.39
2018-02-15T01:10:18.115Z,99588.20
2018-02-15T01:12:45.703Z,99589.78
2018-02-15T01:15:13.298Z,99591.08
2018-02-15T01:17:40.843Z,99593.72
2018-02-15T01:20:08.407Z,99596.03
2018-02-15T01:22:36.695Z,99595.64
2018-02-15T01:25:04.479Z,99595.73
2018-02-15T01:27:32.019Z,99596.83
2018-02-15T01:29:59.820Z,99594.33
2018-02-15T01:32:27.371Z,99599.91
2018-02-15T01:34:55.387Z,99603.45
2018-02-15T01:37:22.954Z,99601.27
2018-02-15T01:39:50.908Z,99600.88
2018-02-15T01:42:18.501Z,99603.33
2018-02-15T01:44:46.051Z,99597.02
2018-02-15T01:47:14.200Z,99602.57
2018-02-15T01:49:53.678Z,99601.12
2018-02-15T01:52:21.271Z,99606.36
2018-02-15T01:54:48.815Z,99594.07
2018-02-15T01:57:16.375Z,99593.09
2018-02-15T01:59:43.981Z,99597.87
2018-02-15T02:02:11.568Z,99591.33
2018-02-15T02:04:39.124Z,99597.69
2018-02-15T02:07:06.725Z,99596.72
2018-02-15T02:09:34.958Z,99608.07
2018-02-15T02:12:02.782Z,99611.69
2018-02-15T02:14:30.374Z,99609.94
2018-02-15T02:16:58.425Z,99610.95
2018-02-15T02:19:26.018Z,99611.96
2018-02-15T02:21:53.567Z,99613.28
2018-02-15T02:24:21.154Z,99610.31
2018-02-15T02:26:49.213Z,99611.59
2018-02-15T02:29:16.798Z,99610.30
2018-02-15T02:31:44.351Z,99613.30
2018-02-15T02:34:11.965Z,99614.61
2018-02-15T02:36:40.384Z,99618.81
2018-02-15T02:39:07.937Z,99615.18
2018-02-15T02:41:35.485Z,99612.92
2018-02-15T02:44:03.662Z,99617.52
2018-02-15T02:46:31.217Z,99611.08
2018-02-15T02:48:58.761Z,99621.97
2018-02-15T02:51:26.380Z,99627.19
2018-02-15T02:53:53.962Z,99630.35
2018-02-15T02:56:21.504Z,99630.34
2018-02-15T02:58:49.099Z,99633.04
2018-02-15T03:01:16.652Z,99636.44
2018-02-15T03:03:44.199Z,99646.45
2018-02-15T03:06:11.820Z,99653.74
2018-02-15T03:08:39.366Z,99658.19
2018-02-15T03:11:07.819Z,99649.98
2018-02-15T03:13:35.416Z,99655.56
2018-02-15T03:16:02.968Z,99662.02
2018-02-15T03:18:30.560Z,99666.84
2018-02-15T03:20:58.114Z,99668.56
2018-02-15T03:23:25.710Z,99669.83
2018-02-15T03:25:53.259Z,99673.69
2018-02-15T03:28:21.030Z,99682.79
2018-02-15T03:30:48.725Z,99680.60
2018-02-15T03:33:16.818Z,99683.23
2018-02-15T03:35:44.884Z,99681.91
2018-02-15T03:38:12.448Z,99681.33
2018-02-15T03:40:40.042Z,99681.20
2018-02-15T03:43:07.626Z,99680.23
2018-02-15T03:45:35.215Z,99679.33
2018-02-15T03:48:02.756Z,99677.21
2018-02-15T03:50:30.986Z,99683.19
2018-02-15T03:52:58.934Z,99685.69
2018-02-15T03:55:26.488Z,99680.00
2018-02-15T03:57:54.081Z,99674.78
2018-02-15T04:00:21.633Z,99682.23
2018-02-15T04:02:49.214Z,99674.41
2018-02-15T04:05:16.754Z,99680.05
2018-02-15T04:07:44.354Z,99680.02
2018-02-15T04:10:11.899Z,99692.06
2018-02-15T04:12:39.502Z,99690.42
2018-02-15T04:15:07.052Z,99701.25
2018-02-15T04:17:35.157Z,99697.45
2018-02-15T04:20:02.703Z,99703.30
2018-02-15T04:22:31.126Z,99702.16
2018-02-15T04:24:58.710Z,99700.80
2018-02-15T04:27:26.630Z,99708.98
2018-02-15T04:29:54.215Z,99709.88
2018-02-15T04:32:21.823Z,99712.92
2018-02-15T04:34:49.376Z,99713.44
2018-02-15T04:37:16.936Z,99717.77
2018-02-15T04:39:44.543Z,99725.13
2018-02-15T04:42:12.082Z,99725.98
2018-02-15T04:44:39.794Z,99724.66
2018-02-15T04:47:07.899Z,99730.70
2018-02-15T04:49:35.452Z,99730.73
2018-02-15T04:52:03.080Z,99735.88
2018-02-15T04:54:30.635Z,99740.20
2018-02-15T04:56:58.227Z,99745.77
2018-02-15T04:59:25.803Z,99759.16
2018-02-15T05:01:53.954Z,99764.33
2018-02-15T05:04:21.548Z,99769.52
2018-02-15T05:06:49.138Z,99770.80
2018-02-15T05:09:16.682Z,99784.58
2018-02-15T05:11:44.228Z,99784.16
2018-02-15T05:14:11.814Z,99782.00
2018-02-15T05:16:39.784Z,99783.31
2018-02-15T05:19:08.022Z,99784.17
2018-02-15T05:21:35.608Z,99790.20
2018-02-15T05:24:03.737Z,99792.36
2018-02-15T05:26:31.283Z,99799.67
2018-02-15T05:28:58.871Z,99804.44
2018-02-15T05:31:26.462Z,99813.92
2018-02-15T05:33:54.357Z,99811.34
2018-02-15T05:36:21.954Z,99811.75
2018-02-15T05:38:49.761Z,99813.89
2018-02-15T05:41:17.350Z,99809.95
2018-02-15T05:43:44.902Z,99810.41
2018-02-15T05:46:12.773Z,99810.87
2018-02-15T05:48:40.580Z,99811.28
2018-02-15T05:51:09.527Z,99812.98
2018-02-15T05:53:37.329Z,99816.45
2018-02-15T05:56:04.930Z,99817.77
2018-02-15T05:58:34.266Z,99824.63
2018-02-15T06:01:02.431Z,99830.67
2018-02-15T06:03:30.087Z,99828.09
2018-02-15T06:05:57.978Z,99831.46
2018-02-15T06:08:25.761Z,99829.96
2018-02-15T06:10:53.333Z,99832.45
2018-02-15T06:13:21.732Z,99841.91
2018-02-15T06:15:49.756Z,99839.28
2018-02-15T06:18:17.321Z,99838.08
2018-02-15T06:20:45.193Z,99835.72
2018-02-15T06:23:13.858Z,99845.98
2018-02-15T06:25:41.426Z,99839.48
2018-02-15T06:28:10.022Z,99838.34
2018-02-15T06:30:37.566Z,99837.62
2018-02-15T06:33:05.164Z,99841.17
2018-02-15T06:35:32.752Z,99840.86
2018-02-15T06:38:00.287Z,99842.59
2018-02-15T06:40:27.860Z,99840.66
2018-02-15T06:42:55.398Z,99846.73
2018-02-15T06:45:23.038Z,99845.87
2018-02-15T06:47:50.562Z,99858.34
2018-02-15T06:50:19.032Z,99843.87
2018-02-15T06:52:47.343Z,99844.34
2018-02-15T06:55:14.858Z,99851.64
2018-02-15T06:57:42.416Z,99857.14
2018-02-15T07:00:10.188Z,99856.47
2018-02-15T07:02:38.259Z,99859.86
2018-02-15T07:05:05.882Z,99860.00
2018-02-15T07:07:33.891Z,99866.28
2018-02-15T07:10:01.458Z,99860.15
2018-02-15T07:12:30.311Z,99859.08
2018-02-15T07:14:58.895Z,99871.91
2018-02-15T07:17:27.816Z,99873.22
2018-02-15T07:19:55.427Z,99877.42
2018-02-15T07:22:24.602Z,99887.41
2018-02-15T07:24:53.306Z,99889.56
2018-02-15T07:27:21.520Z,99887.73
2018-02-15T07:29:49.090Z,99891.36
2018-02-15T07:32:16.647Z,99893.67
2018-02-15T07:34:45.988Z,99887.70
2018-02-15T07:37:13.505Z,99892.41
2018-02-15T07:39:41.090Z,99891.69
2018-02-15T07:42:09.300Z,99884.95
2018-02-15T07:44:36.911Z,99894.77
2018-02-15T07:47:04.473Z,99896.98
2018-02-15T07:49:32.058Z,99898.22
2018-02-15T07:51:59.645Z,99896.73
2018-02-15T07:54:27.578Z,99902.61
2018-02-15T07:56:55.142Z,99908.92
2018-02-15T07:59:22.734Z,99912.83
2018-02-15T08:01:51.268Z,99914.65
2018-02-15T08:04:24.605Z,99913.33
2018-02-15T08:06:52.603Z,99925.55
2018-02-15T08:09:20.171Z,99916.54
2018-02-15T08:11:48.097Z,99922.27
2018-02-15T08:14:16.129Z,99914.44
2018-02-15T08:16:43.899Z,99916.92
2018-02-15T08:19:11.423Z,99918.08
2018-02-15T08:21:38.998Z,99922.41
2018-02-15T08:24:06.864Z,99927.25
2018-02-15T08:26:34.626Z,99927.30
2018-02-15T08:29:03.134Z,99926.88
2018-02-15T08:31:30.965Z,99928.26
2018-02-15T08:33:58.516Z,99924.95
2018-02-15T08:36:26.288Z,99927.70
2018-02-15T08:38:53.819Z,99930.86
2018-02-15T08:41:22.237Z,99927.13
2018-02-15T08:43:50.567Z,99933.95
2018-02-15T08:46:18.145Z,99931.64
2018-02-15T08:48:45.690Z,99933.17
2018-02-15T08:51:13.273Z,99927.28
2018-02-15T08:53:40.800Z,99931.77
2018-02-15T08:56:08.404Z,99929.60
2018-02-15T08:58:35.953Z,99931.09
2018-02-15T09:01:03.704Z,99932.35
2018-02-15T09:03:31.699Z,99931.61
2018-02-15T09:05:59.252Z,99936.78
2018-02-15T09:08:26.804Z,99935.88
2018-02-15T09:10:54.382Z,99934.63
2018-02-15T09:13:21.961Z,99932.35
2018-02-15T09:15:50.796Z,99929.29
2018-02-15T09:18:19.236Z,99938.89
2018-02-15T09:20:46.789Z,99949.70
2018-02-15T09:23:14.362Z,99947.42
2018-02-15T09:25:42.292Z,99956.30
2018-02-15T09:28:11.410Z,99950.81
2018-02-15T09:30:40.068Z,99947.80
2018-02-15T09:33:08.819Z,99950.64
2018-02-15T09:35:36.400Z,99944.30
2018-02-15T09:38:03.968Z,99942.94
2018-02-15T09:40:31.547Z,99942.61
2018-02-15T09:42:59.131Z,99943.84
2018-02-15T09:45:26.728Z,99940.19
2018-02-15T09:47:54.327Z,99943.78
2018-02-15T09:50:22.652Z,99936.75
2018-02-15T09:52:50.238Z,99938.06
2018-02-15T09:55:17.779Z,99941.00
2018-02-15T09:57:45.443Z,99936.63
2018-02-15T10:00:13.393Z,99934.91
2018-02-15T10:02:41.334Z,99934.97
2018-02-15T10:05:10.465Z,99935.55
2018-02-15T10:07:39.775Z,99933.59
2018-02-15T10:10:08.161Z,99920.26
2018-02-15T10:12:36.482Z,99924.56
2018-02-15T10:15:04.495Z,99917.80
2018-02-15T10:17:32.014Z,99917.69
2018-02-15T10:20:02.524Z,99911.13
2018-02-15T10:22:30.579Z,99914.24
2018-02-15T10:24:58.152Z,99916.87
2018-02-15T10:27:25.992Z,99920.98
2018-02-15T10:29:54.366Z,99921.71
2018-02-15T10:32:22.784Z,99915.25
2018-02-15T10:34:50.467Z,99915.33
2018-02-15T10:37:18.416Z,99906.12
2018-02-15T10:39:45.996Z,99905.42
2018-02-15T10:42:13.880Z,99904.69
2018-02-15T10:44:41.476Z,99898.91
2018-02-15T10:47:09.942Z,99905.09
2018-02-15T10:49:37.471Z,99893.48
2018-02-15T10:52:05.453Z,99885.53
2018-02-15T10:54:33.023Z,99892.80
2018-02-15T10:57:00.547Z,99898.06
2018-02-15T10:59:29.180Z,99891.94
2018-02-15T11:02:02.295Z,99887.62
2018-02-15T11:04:34.242Z,99886.53
2018-02-15T11:07:01.774Z,99877.12
2018-02-15T11:09:29.361Z,99878.77
2018-02-15T11:11:56.923Z,99879.20
2018-02-15T11:14:24.449Z,99876.70
2018-02-15T11:16:52.048Z,99879.37
2018-02-15T11:19:19.626Z,99878.23
2018-02-15T11:21:47.164Z,99880.81
2018-02-15T11:24:14.984Z,99877.66
2018-02-15T11:26:42.498Z,99873.42
2018-02-15T11:29:10.132Z,99868.78
2018-02-15T11:31:37.691Z,99864.45
2018-02-15T11:34:05.277Z,99862.20
2018-02-15T11:36:33.206Z,99861.32
2018-02-15T11:39:00.804Z,99866.73
2018-02-15T11:41:28.385Z,99865.34
2018-02-15T11:43:55.903Z,99869.28
2018-02-15T11:46:24.707Z,99864.95
2018-02-15T11:48:52.230Z,99864.89
2018-02-15T11:51:20.605Z,99861.20
2018-02-15T11:53:48.913Z,99858.58
2018-02-15T11:56:16.659Z,99859.00
2018-02-15T11:58:44.188Z,99858.32
2018-02-15T12:01:11.939Z,99861.53
2018-02-15T12:03:40.559Z,99857.27
2018-02-15T12:06:08.148Z,99861.47
2018-02-15T12:08:37.012Z,99869.25
2018-02-15T12:11:04.547Z,99865.78
2018-02-15T12:13:34.086Z,99854.49
2018-02-15T12:16:03.625Z,99858.15
2018-02-15T12:18:31.224Z,99854.59
2018-02-15T12:20:58.741Z,99859.19
2018-02-15T12:23:26.414Z,99860.05
2018-02-15T12:25:53.929Z,99858.09
2018-02-15T12:28:21.457Z,99857.67
2018-02-15T12:30:49.085Z,99862.18
2018-02-15T12:33:16.624Z,99855.38
2018-02-15T12:35:44.241Z,99861.78
2018-02-15T12:38:12.709Z,99861.38
2018-02-15T12:40:40.292Z,99866.71
2018-02-15T12:43:07.828Z,99860.95
2018-02-15T12:45:35.637Z,99869.09
2018-02-15T12:48:03.202Z,99865.36
2018-02-15T12:50:31.582Z,99870.03
2018-02-15T12:52:59.158Z,99869.87
2018-02-15T12:55:26.675Z,99873.70
2018-02-15T12:57:54.195Z,99872.26
2018-02-15T13:00:21.755Z,99879.25
2018-02-15T13:02:49.319Z,99880.48
2018-02-15T13:05:16.861Z,99887.03
2018-02-15T13:07:44.451Z,99876.95
2018-02-15T13:10:12.294Z,99879.08
2018-02-15T13:12:51.571Z,99875.34
2018-02-15T13:15:31.824Z,99872.52
2018-02-15T13:17:59.353Z,99871.87
2018-02-15T13:20:27.745Z,99879.13
2018-02-15T13:22:55.327Z,99868.72
2018-02-15T13:25:24.228Z,99869.95
2018-02-15T13:28:03.719Z,99869.06
2018-02-15T13:30:31.308Z,99861.02
2018-02-15T13:32:59.473Z,99854.11
2018-02-15T13:35:27.041Z,99859.39
2018-02-15T13:37:54.665Z,99866.95
2018-02-15T13:40:22.300Z,99868.70
2018-02-15T13:42:49.820Z,99865.91
2018-02-15T13:45:17.655Z,99867.22
2018-02-15T13:47:45.667Z,99869.88
2018-02-15T13:50:13.203Z,99868.08
2018-02-15T13:52:40.762Z,99866.87
2018-02-15T13:55:08.296Z,99865.77
2018-02-15T13:57:35.863Z,99867.08
2018-02-15T14:00:03.427Z,99865.89
2018-02-15T14:02:31.052Z,99872.56
2018-02-15T14:04:58.688Z,99872.44
2018-02-15T14:07:28.278Z,99876.00
2018-02-15T14:09:56.063Z,99873.40
2018-02-15T14:12:23.635Z,99877.66
2018-02-15T14:14:51.157Z,99883.38
2018-02-15T14:17:18.702Z,99887.11
2018-02-15T14:19:46.289Z,99891.70
2018-02-15T14:22:13.820Z,99890.98
2018-02-15T14:24:41.862Z,99886.03
2018-02-15T14:27:10.506Z,99888.91
2018-02-15T14:29:38.071Z,99893.41
2018-02-15T14:32:06.879Z,99895.36
2018-02-15T14:34:34.451Z,99897.47
2018-02-15T14:37:02.007Z,99904.84
2018-02-15T14:39:30.059Z,99902.83
2018-02-15T14:41:57.624Z,99899.06
2018-02-15T14:44:27.454Z,99904.65
2018-02-15T14:46:55.797Z,99911.25
2018-02-15T14:49:23.389Z,99918.22
2018-02-15T14:51:51.076Z,99922.08
2018-02-15T14:54:20.510Z,99924.44
2018-02-15T14:56:48.117Z,99921.52
2018-02-15T14:59:15.685Z,99924.95
2018-02-15T15:01:43.247Z,99930.84
2018-02-15T15:04:10.819Z,99935.34
2018-02-15T15:06:38.394Z,99929.47
2018-02-15T15:09:05.919Z,99939.84
2018-02-15T15:11:33.482Z,99942.39
2018-02-15T15:14:01.006Z,99948.36
2018-02-15T15:16:28.571Z,99947.37
2018-02-15T15:18:56.809Z,99948.41
2018-02-15T15:21:24.337Z,99942.50
2018-02-15T15:23:51.894Z,99945.26
2018-02-15T15:26:19.702Z,99946.63
2018-02-15T15:28:47.671Z,99947.89
2018-02-15T15:31:16.027Z,99949.33
2018-02-15T15:33:44.020Z,99956.86
2018-02-15T15:36:11.576Z,99963.95
2018-02-15T15:38:39.140Z,99960.19
2018-02-15T15:41:06.666Z,99969.46
2018-02-15T15:43:34.218Z,99971.85
2018-02-15T15:46:01.778Z,99980.52
2018-02-15T15:48:29.334Z,99973.33
2018-02-15T15:50:58.665Z,99979.86
2018-02-15T15:53:26.178Z,99974.36
2018-02-15T15:55:54.560Z,99978.81
2018-02-15T15:58:22.083Z,99977.02
2018-02-15T16:00:49.638Z,99979.26
2018-02-15T16:03:17.301Z,99985.58
2018-02-15T16:05:47.014Z,99984.45
2018-02-15T16:08:14.543Z,99993.99
2018-02-15T16:10:44.027Z,99999.75
2018-02-15T16:13:11.646Z,100003.87
2018-02-15T16:15:41.032Z,100008.31
2018-02-15T16:18:08.585Z,100019.13
2018-02-15T16:20:36.164Z,100024.31
2018-02-15T16:23:04.699Z,100027.86
2018-02-15T16:25:32.272Z,100028.67
2018-02-15T16:27:59.795Z,100034.73
2018-02-15T16:30:27.740Z,100039.97
2018-02-15T16:32:55.315Z,100040.66
2018-02-15T16:35:22.833Z,100041.09
2018-02-15T16:37:50.395Z,100043.65
2018-02-15T16:40:17.959Z,100049.39
2018-02-15T16:42:45.531Z,100050.70
2018-02-15T16:45:13.913Z,100060.39
2018-02-15T16:47:41.957Z,100064.34
2018-02-15T16:50:09.707Z,100063.16
2018-02-15T16:52:37.535Z,100072.80
2018-02-15T16:55:05.060Z,100076.08
2018-02-15T16:57:33.029Z,100078.14
2018-02-15T17:00:00.566Z,100083.72
2018-02-15T17:02:28.464Z,100085.75
2018-02-15T17:04:56.172Z,100083.08
2018-02-15T17:07:25.044Z,100090.38
2018-02-15T17:09:52.607Z,100086.41
2018-02-15T17:12:20.294Z,100094.56
2018-02-15T17:14:47.863Z,100098.91
2018-02-15T17:17:15.455Z,100104.01
2018-02-15T17:19:43.024Z,100102.64
2018-02-15T17:22:10.585Z,100110.06
2018-02-15T17:24:38.212Z,100100.66
2018-02-15T17:27:05.797Z,100109.78
2018-02-15T17:29:33.946Z,100110.63
2018-02-15T17:32:02.738Z,100112.31
2018-02-15T17:34:30.267Z,100115.30
2018-02-15T17:36:58.790Z,100117.91
2018-02-15T17:39:26.351Z,100117.06
2018-02-15T17:41:53.926Z,100131.87
2018-02-15T17:44:21.511Z,100131.45
2018-02-15T17:46:49.507Z,100134.05
2018-02-15T17:49:17.087Z,100133.17
2018-02-15T17:51:44.618Z,100140.14
2018-02-15T17:54:12.889Z,100140.58
2018-02-15T17:56:41.408Z,100136.52
2018-02-15T17:59:10.017Z,100151.72
2018-02-15T18:01:37.677Z,100144.78
2018-02-15T18:04:05.207Z,100147.02
2018-02-15T18:06:33.683Z,100144.80
2018-02-15T18:09:01.198Z,100150.46
2018-02-15T18:11:28.836Z,100150.49
2018-02-15T18:13:57.288Z,100145.31
2018-02-15T18:16:24.846Z,100149.13
2018-02-15T18:18:53.038Z,100141.30
2018-02-15T18:21:21.367Z,100138.67
2018-02-15T18:23:48.888Z,100138.33
2018-02-15T18:26:17.116Z,100136.59
2018-02-15T18:28:44.967Z,100134.38
2018-02-15T18:31:12.535Z,100130.86
2018-02-15T18:33:40.977Z,100139.60
2018-02-15T18:36:08.593Z,100146.54
2018-02-15T18:38:37.403Z,100141.47
2018-02-15T18:41:05.930Z,100152.34
2018-02-15T18:43:33.460Z,100148.02
2018-02-15T18:46:01.042Z,100151.15
2018-02-15T18:48:29.495Z,100156.36
2018-02-15T18:50:59.315Z,100167.66
2018-02-15T18:53:26.849Z,100162.93
2018-02-15T18:55:54.415Z,100165.97
2018-02-15T18:58:22.891Z,100168.63
2018-02-15T19:00:51.287Z,100168.27
2018-02-15T19:03:19.329Z,100163.11
2018-02-15T19:05:46.878Z,100171.68
2018-02-15T19:08:15.857Z,100169.94
2018-02-15T19:10:43.467Z,100175.94
2018-02-15T19:13:11.911Z,100173.13
2018-02-15T19:15:40.448Z,100176.72
2018-02-15T19:18:07.966Z,100181.62
2018-02-15T19:20:35.491Z,100183.36
2018-02-15T19:23:03.238Z,100177.73
2018-02-15T19:25:31.081Z,100183.02
2018-02-15T19:27:59.531Z,100182.26
2018-02-15T19:30:27.078Z,100187.44
2018-02-15T19:32:54.594Z,100184.40
2018-02-15T19:35:22.121Z,100186.14
2018-02-15T19:37:49.704Z,100190.90
2018-02-15T19:40:17.328Z,100192.98
2018-02-15T19:42:44.869Z,100200.38
2018-02-15T19:45:12.454Z,100197.77
2018-02-15T19:47:40.006Z,100205.99
2018-02-15T19:50:07.581Z,100212.48
2018-02-15T19:52:35.296Z,100217.25
2018-02-15T19:55:02.824Z,100219.02
2018-02-15T19:57:30.387Z,100218.55
2018-02-15T19:59:58.316Z,100219.45
2018-02-15T20:02:26.335Z,100219.54
2018-02-15T20:04:53.864Z,100222.49
2018-02-15T20:07:22.232Z,100222.88
2018-02-15T20:09:49.806Z,100220.20
2018-02-15T20:12:17.358Z,100216.33
2018-02-15T20:14:44.926Z,100221.12
2018-02-15T20:17:13.268Z,100220.70
2018-02-15T20:22:43.811Z,100216.84
2018-02-15T20:25:11.328Z,100218.59
2018-02-15T20:27:44.277Z,100228.60
2018-02-15T20:30:12.176Z,100226.44
2018-02-15T20:32:39.731Z,100238.05
2018-02-15T20:35:07.810Z,100245.40
2018-02-15T20:37:43.339Z,100248.89
2018-02-15T20:40:17.769Z,100250.13
2018-02-15T20:42:46.246Z,100253.52
2018-02-15T20:45:14.283Z,100260.50
2018-02-15T20:47:42.520Z,100252.75
2018-02-15T20:50:15.566Z,100258.84
2018-02-15T20:52:48.596Z,100264.16
2018-02-15T20:55:22.459Z,100269.00
2018-02-15T20:57:50.390Z,100275.95
2018-02-15T21:00:18.068Z,100287.22
2018-02-15T21:02:46.059Z,100284.63
2018-02-15T21:05:13.634Z,100287.66
2018-02-15T21:07:41.221Z,100285.51
2018-02-15T21:10:08.734Z,100284.62
2018-02-15T21:12:36.242Z,100281.09
2018-02-15T21:15:05.572Z,100287.98
2018-02-15T21:17:33.143Z,100282.77
2018-02-15T21:20:00.658Z,100287.48
2018-02-15T21:22:29.191Z,100283.55
2018-02-15T21:24:56.757Z,100288.37
2018-02-15T21:27:24.324Z,100294.01
2018-02-15T21:29:52.248Z,100305.33
2018-02-15T21:32:20.273Z,100303.19
2018-02-15T21:34:47.839Z,100305.83
2018-02-15T21:37:15.762Z,100303.66
2018-02-15T21:39:43.367Z,100301.48
2018-02-15T21:42:10.935Z,100295.89
2018-02-15T21:44:38.506Z,100302.35
2018-02-15T21:47:06.013Z,100302.81
2018-02-15T21:49:33.639Z,100305.45
2018-02-15T21:52:01.384Z,100302.42
2018-02-15T21:54:29.541Z,100308.47
2018-02-15T21:56:57.115Z,100304.58
2018-02-15T21:59:25.640Z,100303.67
2018-02-15T22:01:54.751Z,100307.58
2018-02-15T22:04:24.524Z,100311.48
2018-02-15T22:06:54.304Z,100310.19
2018-02-15T22:09:23.296Z,100310.98
2018-02-15T22:11:52.077Z,100314.42
2018-02-15T22:14:21.232Z,100319.26
2018-02-15T22:16:50.404Z,100324.92
2018-02-15T22:19:19.288Z,100321.45
2018-02-15T22:21:47.869Z,100322.75
2018-02-15T22:24:17.526Z,100311.48
2018-02-15T22:26:46.470Z,100317.12
2018-02-15T22:29:15.019Z,100307.56
2018-02-15T22:31:44.056Z,100308.73
2018-02-15T22:34:13.375Z,100307.27
2018-02-15T22:36:42.671Z,100309.97
2018-02-15T22:39:11.134Z,100314.42
2018-02-15T22:41:40.286Z,100322.73
2018-02-15T22:44:09.762Z,100326.61
2018-02-15T22:46:38.285Z,100324.04
2018-02-15T22:49:07.722Z,100324.47
2018-02-15T22:51:37.103Z,100324.91
2018-02-15T22:54:05.813Z,100328.80
2018-02-15T22:56:34.238Z,100330.98
2018-02-15T22:59:02.720Z,100334.86
2018-02-15T23:01:31.589Z,100334.44
2018-02-15T23:03:59.941Z,100337.91
2018-02-15T23:06:28.770Z,100334.35
2018-02-15T23:08:57.302Z,100330.39
2018-02-15T23:11:25.780Z,100331.73
2018-02-15T23:13:55.069Z,100331.80
2018-02-15T23:16:23.414Z,100333.58
2018-02-15T23:18:50.959Z,100334.84
2018-02-15T23:21:18.494Z,100338.72
2018-02-15T23:23:46.077Z,100340.45
2018-02-15T23:26:13.649Z,100338.30
2018-02-15T23:28:41.465Z,100344.81
2018-02-15T23:31:08.998Z,100332.26
2018-02-15T23:33:36.595Z,100337.45
2018-02-15T23:36:04.363Z,100340.42
2018-02-15T23:38:31.903Z,100340.00
2018-02-15T23:40:59.482Z,100336.97
2018-02-15T23:43:27.023Z,100345.63
2018-02-15T23:45:54.609Z,100346.02
2018-02-15T23:48:22.360Z,100352.95
2018-02-15T23:50:50.658Z,100356.41
2018-02-15T23:53:18.616Z,100356.90
2018-02-15T23:55:46.168Z,100351.75
2018-02-15T23:58:13.770Z,100355.21
